Time;durP1;ratioP1;P1;durP2;ratioP2;P2;SDS_P1;SDS_P2;PMS_P1;PMS_P2;Temp;Humidity;BMP_temperature;BMP_pressure;BME280_temperature;BME280_humidity;BME280_pressure;Samples;Min_cycle;Max_cycle;Signal;HPM_P1;HPM_P2
2023/11/18 00:01:38;;;;;;;1.20;0.50;;;7.40;99.90;;;;;;5074591;28;20428;-57
2023/11/18 00:04:09;;;;;;;1.60;0.50;;;7.30;99.90;;;;;;5075151;28;20727;-56
2023/11/18 00:06:36;;;;;;;1.00;0.60;;;7.40;99.90;;;;;;5095955;28;20426;-57
2023/11/18 00:09:04;;;;;;;1.20;0.60;;;7.40;99.90;;;;;;5093211;28;20430;-56
2023/11/18 00:11:31;;;;;;;0.80;0.50;;;7.30;99.90;;;;;;5095671;28;20834;-58
2023/11/18 00:13:59;;;;;;;0.85;0.45;;;7.30;99.90;;;;;;5094972;28;20725;-57
2023/11/18 00:16:29;;;;;;;0.80;0.50;;;7.40;99.90;;;;;;5087266;28;20561;-57
2023/11/18 00:18:56;;;;;;;1.10;0.40;;;7.60;99.90;;;;;;5075154;28;20847;-57
2023/11/18 00:21:23;;;;;;;1.60;0.50;;;7.60;99.90;;;;;;5079862;28;20745;-55
2023/11/18 00:23:51;;;;;;;0.77;0.40;;;7.50;99.90;;;;;;5075739;28;20975;-55
2023/11/18 00:26:18;;;;;;;0.70;0.40;;;7.30;99.90;;;;;;5079062;28;20421;-55
2023/11/18 00:28:45;;;;;;;0.80;0.40;;;7.20;99.90;;;;;;5088672;28;20485;-58
2023/11/18 00:31:13;;;;;;;0.60;0.40;;;7.00;99.90;;;;;;5093000;28;20422;-57
2023/11/18 00:33:41;;;;;;;1.00;0.50;;;7.00;99.90;;;;;;5095203;28;20742;-56
2023/11/18 00:36:09;;;;;;;0.70;0.40;;;6.90;99.90;;;;;;5086921;28;20431;-58
2023/11/18 00:38:36;;;;;;;0.70;0.45;;;6.80;99.90;;;;;;5077359;28;20431;-57
2023/11/18 00:41:04;;;;;;;0.80;0.60;;;6.90;99.90;;;;;;5083464;28;20436;-57
2023/11/18 00:43:31;;;;;;;0.93;0.60;;;7.00;99.90;;;;;;5093221;28;20439;-57
2023/11/18 00:45:59;;;;;;;1.90;0.60;;;6.90;99.90;;;;;;5082233;28;20430;-57
2023/11/18 00:48:26;;;;;;;1.00;0.60;;;6.80;99.90;;;;;;5073497;28;20423;-57
2023/11/18 00:50:56;;;;;;;1.00;0.57;;;6.70;99.90;;;;;;5081142;28;20440;-58
2023/11/18 00:53:23;;;;;;;1.20;0.60;;;6.60;99.90;;;;;;5094625;28;20786;-57
2023/11/18 00:55:50;;;;;;;1.10;0.60;;;6.70;99.90;;;;;;5082171;28;20429;-58
2023/11/18 00:58:17;;;;;;;0.90;0.60;;;6.60;99.90;;;;;;5092214;28;20860;-58
2023/11/18 01:00:44;;;;;;;1.00;0.60;;;6.70;99.90;;;;;;5081031;28;20735;-59
2023/11/18 01:03:11;;;;;;;0.90;0.60;;;6.70;99.90;;;;;;5094802;28;20429;-58
2023/11/18 01:05:38;;;;;;;2.20;0.60;;;6.80;99.90;;;;;;5080437;28;20435;-58
2023/11/18 01:08:08;;;;;;;0.90;0.60;;;6.80;99.90;;;;;;5072049;28;20481;-57
2023/11/18 01:10:35;;;;;;;1.30;0.60;;;6.70;99.90;;;;;;5073059;28;20520;-56
2023/11/18 01:13:02;;;;;;;0.95;0.60;;;6.80;99.90;;;;;;5072955;28;20403;-58
2023/11/18 01:15:32;;;;;;;1.38;0.60;;;6.90;99.90;;;;;;5072966;28;20427;-58
2023/11/18 01:17:59;;;;;;;1.00;0.60;;;6.90;99.90;;;;;;5073082;28;20846;-58
2023/11/18 01:20:26;;;;;;;1.20;0.60;;;6.80;99.90;;;;;;5071497;28;20423;-58
2023/11/18 01:22:53;;;;;;;1.10;0.80;;;6.80;99.90;;;;;;5072886;28;20427;-59
2023/11/18 01:25:21;;;;;;;1.30;0.70;;;6.70;99.90;;;;;;5091927;28;20431;-59
2023/11/18 01:27:48;;;;;;;1.10;0.70;;;6.50;99.90;;;;;;5091015;28;20862;-58
2023/11/18 01:30:16;;;;;;;1.70;0.80;;;6.50;99.90;;;;;;5091254;28;20844;-59
2023/11/18 01:32:43;;;;;;;1.30;0.70;;;6.60;99.90;;;;;;5092249;28;20455;-59
2023/11/18 01:35:12;;;;;;;0.90;0.60;;;6.60;99.90;;;;;;5091875;28;20421;-58
2023/11/18 01:37:39;;;;;;;0.90;0.60;;;6.70;99.90;;;;;;5090041;28;20485;-58
2023/11/18 01:40:07;;;;;;;0.90;0.60;;;6.90;99.90;;;;;;5083170;28;20425;-60
2023/11/18 01:42:39;;;;;;;0.90;0.60;;;7.00;99.90;;;;;;5089351;28;20769;-59
2023/11/18 01:45:11;;;;;;;1.10;0.60;;;7.20;99.90;;;;;;5073900;28;20512;-59
2023/11/18 01:47:39;;;;;;;0.65;0.40;;;7.30;99.90;;;;;;5072869;28;20431;-57
2023/11/18 01:50:09;;;;;;;0.60;0.40;;;7.60;99.90;;;;;;5072529;28;20438;-57
2023/11/18 01:52:37;;;;;;;0.80;0.40;;;7.70;99.90;;;;;;5073842;28;20412;-57
2023/11/18 01:55:06;;;;;;;0.70;0.50;;;7.70;99.90;;;;;;5074164;28;20476;-57
2023/11/18 01:57:33;;;;;;;1.27;0.50;;;7.50;99.90;;;;;;5074035;28;21015;-56
2023/11/18 02:00:05;;;;;;;0.70;0.40;;;7.30;99.90;;;;;;5072988;28;20424;-58
2023/11/18 02:02:34;;;;;;;0.90;0.57;;;7.10;99.90;;;;;;5073019;28;20501;-57
2023/11/18 02:05:02;;;;;;;1.10;0.45;;;7.10;99.90;;;;;;5072869;28;20428;-56
2023/11/18 02:07:30;;;;;;;0.68;0.40;;;7.10;99.90;;;;;;5073090;28;20420;-54
2023/11/18 02:09:57;;;;;;;0.80;0.40;;;7.10;99.90;;;;;;5071137;28;20459;-57
2023/11/18 02:12:34;;;;;;;1.05;0.40;;;7.20;99.90;;;;;;5071689;28;20431;-58
2023/11/18 02:15:09;;;;;;;0.70;0.40;;;7.20;99.90;;;;;;5070782;28;20439;-58
2023/11/18 02:17:39;;;;;;;0.60;0.40;;;7.10;99.90;;;;;;5072706;28;20435;-56
2023/11/18 02:20:14;;;;;;;0.60;0.40;;;7.10;99.90;;;;;;5075004;28;20765;-59
2023/11/18 02:22:42;;;;;;;0.60;0.40;;;7.10;99.90;;;;;;5075120;28;20871;-58
2023/11/18 02:25:11;;;;;;;0.50;0.40;;;7.20;99.90;;;;;;5076294;28;20553;-58
2023/11/18 02:27:39;;;;;;;0.68;0.45;;;7.20;99.90;;;;;;5084428;28;20801;-56
2023/11/18 02:30:12;;;;;;;0.88;0.47;;;7.10;99.90;;;;;;5096849;28;20487;-58
2023/11/18 02:32:47;;;;;;;0.95;0.40;;;7.00;99.90;;;;;;5090484;28;20478;-58
2023/11/18 02:35:21;;;;;;;0.80;0.50;;;7.00;99.90;;;;;;5077134;28;20435;-58
2023/11/18 02:37:51;;;;;;;1.42;0.50;;;7.00;99.90;;;;;;5075293;28;20427;-56
2023/11/18 02:40:24;;;;;;;0.80;0.40;;;7.10;99.90;;;;;;5076598;28;20853;-55
2023/11/18 02:42:55;;;;;;;0.60;0.40;;;7.10;99.90;;;;;;5075881;28;20443;-56
2023/11/18 02:45:22;;;;;;;0.70;0.40;;;7.00;99.90;;;;;;5076048;28;20466;-57
2023/11/18 02:47:49;;;;;;;0.90;0.40;;;6.90;99.90;;;;;;5075753;28;20432;-56
2023/11/18 02:50:19;;;;;;;1.30;0.40;;;6.80;99.90;;;;;;5076624;28;20424;-56
2023/11/18 02:52:46;;;;;;;1.00;0.40;;;6.70;99.90;;;;;;5076491;28;20831;-56
2023/11/18 02:55:13;;;;;;;0.60;0.30;;;6.80;99.90;;;;;;5076882;28;20477;-58
2023/11/18 02:57:40;;;;;;;0.60;0.30;;;6.80;99.90;;;;;;5077567;28;20489;-58
2023/11/18 03:00:18;;;;;;;0.55;0.30;;;6.90;99.90;;;;;;5077196;28;20734;-56
2023/11/18 03:02:46;;;;;;;0.80;0.40;;;7.10;99.90;;;;;;5075809;28;20437;-57
2023/11/18 03:05:12;;;;;;;0.60;0.38;;;7.10;99.90;;;;;;5074229;28;20439;-57
2023/11/18 03:07:44;;;;;;;0.50;0.30;;;7.00;99.90;;;;;;5075506;28;20423;-58
2023/11/18 03:10:20;;;;;;;0.50;0.30;;;7.00;99.90;;;;;;5074762;28;20696;-57
2023/11/18 03:12:47;;;;;;;0.50;0.30;;;7.00;99.90;;;;;;5075170;28;20546;-57
2023/11/18 03:15:17;;;;;;;1.00;0.30;;;7.00;99.90;;;;;;5076418;28;20427;-57
2023/11/18 03:17:45;;;;;;;0.50;0.30;;;6.90;99.90;;;;;;5076623;28;20428;-57
2023/11/18 03:20:16;;;;;;;0.50;0.30;;;6.90;99.90;;;;;;5076869;28;20917;-57
2023/11/18 03:22:44;;;;;;;0.50;0.30;;;6.80;99.90;;;;;;5095497;28;20434;-57
2023/11/18 03:25:12;;;;;;;0.70;0.30;;;6.70;99.90;;;;;;5085961;28;20434;-57
2023/11/18 03:27:39;;;;;;;0.70;0.30;;;6.70;99.90;;;;;;5087712;28;20422;-58
2023/11/18 03:30:09;;;;;;;0.60;0.30;;;6.70;99.90;;;;;;5077312;28;20454;-57
2023/11/18 03:32:38;;;;;;;0.60;0.30;;;6.60;99.90;;;;;;5076360;28;20435;-57
2023/11/18 03:35:08;;;;;;;0.63;0.37;;;6.60;99.90;;;;;;5076114;28;20431;-58
2023/11/18 03:37:35;;;;;;;0.50;0.30;;;6.60;99.90;;;;;;5075932;28;20416;-57
2023/11/18 03:40:02;;;;;;;0.40;0.22;;;6.60;99.90;;;;;;5076000;28;20487;-57
2023/11/18 03:42:29;;;;;;;0.50;0.30;;;6.60;99.90;;;;;;5076128;28;20423;-57
2023/11/18 03:44:57;;;;;;;0.70;0.32;;;6.70;99.90;;;;;;5075858;28;20423;-57
2023/11/18 03:47:24;;;;;;;0.90;0.50;;;6.70;99.90;;;;;;5088416;28;20429;-56
2023/11/18 03:49:54;;;;;;;0.80;0.50;;;6.70;99.90;;;;;;5095249;28;20456;-57
2023/11/18 03:52:21;;;;;;;2.60;0.50;;;6.60;99.90;;;;;;5094680;28;21235;-57
2023/11/18 03:54:48;;;;;;;0.90;0.50;;;6.60;99.90;;;;;;5095105;28;20817;-57
2023/11/18 03:57:15;;;;;;;0.70;0.40;;;6.80;99.90;;;;;;5095828;28;20421;-57
2023/11/18 03:59:42;;;;;;;0.90;0.50;;;6.70;99.90;;;;;;5095384;28;20843;-57
2023/11/18 04:02:11;;;;;;;0.80;0.40;;;6.60;99.90;;;;;;5095956;28;20472;-57
2023/11/18 04:04:38;;;;;;;1.10;0.40;;;6.50;99.90;;;;;;5079125;28;20431;-57
2023/11/18 04:07:06;;;;;;;0.60;0.40;;;6.60;99.90;;;;;;5075632;28;20473;-57
2023/11/18 04:09:33;;;;;;;0.60;0.30;;;6.60;99.90;;;;;;5076008;28;20522;-57
2023/11/18 04:12:00;;;;;;;0.70;0.40;;;6.60;99.90;;;;;;5076008;28;20437;-57
2023/11/18 04:14:27;;;;;;;0.70;0.40;;;6.70;99.90;;;;;;5075906;28;20469;-57
2023/11/18 04:16:55;;;;;;;0.70;0.40;;;6.70;99.90;;;;;;5076026;28;20423;-57
2023/11/18 04:19:22;;;;;;;0.70;0.30;;;6.60;99.90;;;;;;5079234;28;20698;-57
2023/11/18 04:21:50;;;;;;;1.70;0.40;;;6.60;99.90;;;;;;5078077;28;20727;-58
2023/11/18 04:24:18;;;;;;;0.50;0.30;;;6.80;99.90;;;;;;5075419;28;20435;-57
2023/11/18 04:26:46;;;;;;;0.73;0.40;;;6.90;99.90;;;;;;5075460;28;20651;-58
2023/11/18 04:29:12;;;;;;;0.80;0.40;;;6.90;99.90;;;;;;5074827;28;20870;-58
2023/11/18 04:31:40;;;;;;;2.70;0.70;;;6.80;99.90;;;;;;5075310;28;20846;-58
2023/11/18 04:34:08;;;;;;;1.35;0.60;;;6.50;99.90;;;;;;5088856;28;20438;-58
2023/11/18 04:36:35;;;;;;;3.22;0.60;;;6.40;99.90;;;;;;5080747;28;20512;-58
2023/11/18 04:39:02;;;;;;;1.30;0.50;;;6.30;99.90;;;;;;5089357;28;20780;-57
2023/11/18 04:41:31;;;;;;;1.02;0.50;;;6.20;99.90;;;;;;5094684;28;20844;-58
2023/11/18 04:43:58;;;;;;;0.90;0.40;;;6.10;99.90;;;;;;5084400;28;20442;-57
2023/11/18 04:46:25;;;;;;;1.52;0.50;;;6.00;99.90;;;;;;5074518;28;20419;-57
2023/11/18 04:48:54;;;;;;;0.82;0.50;;;6.00;99.90;;;;;;5074537;28;20711;-57
2023/11/18 04:51:22;;;;;;;1.00;0.40;;;6.00;99.90;;;;;;5074953;28;20738;-57
2023/11/18 04:53:49;;;;;;;2.22;0.60;;;5.80;99.90;;;;;;5074876;28;20416;-57
2023/11/18 04:56:18;;;;;;;1.27;0.50;;;5.70;99.90;;;;;;5075318;28;20423;-57
2023/11/18 04:58:47;;;;;;;8.80;1.30;;;5.60;99.90;;;;;;5074963;28;20423;-57
2023/11/18 05:01:15;;;;;;;1.10;0.60;;;5.40;99.90;;;;;;5079381;28;20484;-56
2023/11/18 05:03:42;;;;;;;1.10;0.50;;;5.40;99.90;;;;;;5077211;28;20513;-58
2023/11/18 05:06:09;;;;;;;3.80;1.00;;;5.40;99.90;;;;;;5086401;28;20422;-57
2023/11/18 05:08:36;;;;;;;1.20;0.50;;;5.40;99.90;;;;;;5076575;28;20471;-57
2023/11/18 05:11:04;;;;;;;1.90;0.50;;;5.30;99.90;;;;;;5073556;28;20439;-57
2023/11/18 05:13:32;;;;;;;3.40;0.50;;;5.30;99.90;;;;;;5075664;28;20481;-57
2023/11/18 05:16:00;;;;;;;6.57;0.70;;;5.20;99.90;;;;;;5092620;28;20422;-57
2023/11/18 05:18:29;;;;;;;2.40;0.50;;;5.20;99.90;;;;;;5086770;28;20437;-57
2023/11/18 05:20:57;;;;;;;0.90;0.50;;;5.20;99.90;;;;;;5092575;28;20586;-57
2023/11/18 05:23:24;;;;;;;0.70;0.50;;;5.30;99.90;;;;;;5082063;28;20439;-57
2023/11/18 05:25:52;;;;;;;1.10;0.50;;;5.30;99.90;;;;;;5084961;28;20429;-58
2023/11/18 05:28:19;;;;;;;1.00;0.50;;;5.20;99.90;;;;;;5091786;28;20418;-58
2023/11/18 05:30:46;;;;;;;1.50;0.50;;;5.10;99.90;;;;;;5092533;28;20836;-57
2023/11/18 05:33:17;;;;;;;1.35;0.40;;;5.20;99.90;;;;;;5093572;28;20921;-58
2023/11/18 05:35:48;;;;;;;1.05;0.60;;;5.20;99.90;;;;;;5093505;28;20508;-57
2023/11/18 05:38:18;;;;;;;1.10;0.50;;;5.10;99.90;;;;;;5094553;28;20418;-57
2023/11/18 05:40:55;;;;;;;0.93;0.50;;;5.20;99.90;;;;;;5094063;28;20418;-57
2023/11/18 05:43:24;;;;;;;0.90;0.50;;;5.20;99.90;;;;;;5093262;28;20507;-58
2023/11/18 05:46:14;;;;;;;0.75;0.45;;;5.20;99.90;;;;;;5093081;28;20433;-57
2023/11/18 05:48:43;;;;;;;1.40;0.60;;;5.30;99.90;;;;;;5091244;28;20434;-58
2023/11/18 05:51:10;;;;;;;0.90;0.53;;;5.30;99.90;;;;;;5074093;28;20419;-57
2023/11/18 05:53:41;;;;;;;0.90;0.50;;;5.40;99.90;;;;;;5076649;28;20869;-58
2023/11/18 05:56:09;;;;;;;0.80;0.50;;;5.40;99.90;;;;;;5077222;28;20455;-58
2023/11/18 05:58:36;;;;;;;2.20;0.50;;;5.40;99.90;;;;;;5076865;28;20505;-57
2023/11/18 06:01:03;;;;;;;1.10;0.52;;;5.50;99.90;;;;;;5077358;28;20524;-58
2023/11/18 06:03:30;;;;;;;0.87;0.43;;;5.60;99.90;;;;;;5077342;28;20463;-57
2023/11/18 06:05:58;;;;;;;2.60;0.50;;;5.80;99.90;;;;;;5081101;28;20434;-57
2023/11/18 06:08:25;;;;;;;1.30;0.60;;;5.70;99.90;;;;;;5078050;28;20431;-57
2023/11/18 06:10:56;;;;;;;1.30;0.60;;;5.70;99.90;;;;;;5077888;28;20540;-58
2023/11/18 06:13:23;;;;;;;0.65;0.50;;;5.60;99.90;;;;;;5081580;28;20432;-58
2023/11/18 06:15:51;;;;;;;0.90;0.50;;;5.70;99.90;;;;;;5077269;28;20447;-58
2023/11/18 06:18:19;;;;;;;1.00;0.60;;;5.70;99.90;;;;;;5076439;28;20437;-57
2023/11/18 06:20:46;;;;;;;1.10;0.60;;;5.70;99.90;;;;;;5074804;28;20431;-58
2023/11/18 06:23:18;;;;;;;1.10;0.60;;;5.60;99.90;;;;;;5075677;28;20427;-58
2023/11/18 06:25:48;;;;;;;1.10;0.60;;;5.60;99.90;;;;;;5076297;28;20454;-57
2023/11/18 06:28:15;;;;;;;1.30;0.60;;;5.60;99.90;;;;;;5076486;28;20493;-58
2023/11/18 06:30:42;;;;;;;1.50;0.50;;;5.60;99.90;;;;;;5075657;28;20431;-52
2023/11/18 06:33:09;;;;;;;1.10;0.60;;;5.50;99.90;;;;;;5083516;28;20784;-48
2023/11/18 06:35:39;;;;;;;1.10;0.60;;;5.50;99.90;;;;;;5088981;28;20426;-50
2023/11/18 06:38:07;;;;;;;1.10;0.70;;;5.40;99.90;;;;;;5089539;28;20495;-52
2023/11/18 06:40:35;;;;;;;1.10;0.63;;;5.40;99.90;;;;;;5086750;28;20431;-51
2023/11/18 06:43:02;;;;;;;1.33;0.60;;;5.30;99.90;;;;;;5076210;28;20742;-53
2023/11/18 06:45:31;;;;;;;1.30;0.70;;;5.40;99.90;;;;;;5085841;28;20432;-54
2023/11/18 06:47:59;;;;;;;1.70;0.80;;;5.30;99.90;;;;;;5085412;28;20425;-47
2023/11/18 06:50:26;;;;;;;1.20;0.70;;;5.30;99.90;;;;;;5095444;28;20520;-54
2023/11/18 06:52:53;;;;;;;3.75;0.90;;;5.30;99.90;;;;;;5095830;28;20421;-54
2023/11/18 06:55:21;;;;;;;1.30;0.70;;;5.10;99.90;;;;;;5090167;28;20484;-53
2023/11/18 06:57:49;;;;;;;1.17;0.70;;;5.10;99.90;;;;;;5089256;28;20772;-50
2023/11/18 07:00:16;;;;;;;1.40;0.70;;;5.10;99.90;;;;;;5091324;28;20438;-53
2023/11/18 07:02:43;;;;;;;1.90;0.80;;;5.10;99.90;;;;;;5084742;28;20433;-50
2023/11/18 07:05:12;;;;;;;1.10;0.60;;;5.30;99.90;;;;;;5095134;28;20438;-54
2023/11/18 07:07:39;;;;;;;1.20;0.60;;;5.30;99.90;;;;;;5084335;28;20745;-54
2023/11/18 07:10:07;;;;;;;1.17;0.70;;;5.40;99.90;;;;;;5075141;28;20442;-50
2023/11/18 07:12:36;;;;;;;1.00;0.60;;;5.50;99.90;;;;;;5076420;28;20427;-53
2023/11/18 07:15:06;;;;;;;1.90;0.70;;;5.60;99.90;;;;;;5075346;28;20429;-52
2023/11/18 07:17:34;;;;;;;1.05;0.60;;;5.50;99.90;;;;;;5075508;28;20745;-52
2023/11/18 07:20:02;;;;;;;1.00;0.70;;;5.50;99.90;;;;;;5075928;28;20708;-54
2023/11/18 07:22:29;;;;;;;1.58;0.80;;;5.50;99.90;;;;;;5067381;28;20414;-53
2023/11/18 07:24:56;;;;;;;1.50;0.70;;;5.50;99.90;;;;;;5086790;28;20434;-49
2023/11/18 07:27:23;;;;;;;2.00;0.80;;;5.70;99.90;;;;;;5077466;28;20480;-54
2023/11/18 07:29:51;;;;;;;1.40;0.80;;;5.80;99.90;;;;;;5090021;28;20499;-51
2023/11/18 07:32:19;;;;;;;1.75;0.80;;;5.80;99.90;;;;;;5078198;28;20493;-51
2023/11/18 07:34:46;;;;;;;1.60;0.90;;;5.90;99.90;;;;;;5085439;28;20423;-52
2023/11/18 07:37:13;;;;;;;1.40;0.80;;;5.90;99.90;;;;;;5075836;28;20416;-50
2023/11/18 07:39:44;;;;;;;1.40;0.80;;;6.00;99.90;;;;;;5090017;28;20919;-51
2023/11/18 07:42:12;;;;;;;1.30;0.80;;;6.20;99.90;;;;;;5095301;28;20417;-50
2023/11/18 07:44:40;;;;;;;1.67;0.73;;;6.20;99.90;;;;;;5095160;28;20444;-53
2023/11/18 07:47:07;;;;;;;1.20;0.80;;;6.30;99.90;;;;;;5094295;28;20526;-48
2023/11/18 07:49:36;;;;;;;1.58;0.80;;;6.20;99.90;;;;;;5094221;28;20479;-50
2023/11/18 07:52:03;;;;;;;0.98;0.70;;;6.20;99.90;;;;;;5094039;28;20471;-50
2023/11/18 07:54:30;;;;;;;1.55;0.80;;;6.30;99.90;;;;;;5094690;28;20507;-49
2023/11/18 07:56:57;;;;;;;1.80;0.80;;;6.20;99.90;;;;;;5091898;28;20454;-53
2023/11/18 07:59:24;;;;;;;1.73;0.80;;;6.30;99.90;;;;;;5088946;28;20427;-53
2023/11/18 08:01:53;;;;;;;1.80;0.80;;;6.30;99.90;;;;;;5093922;28;20426;-50
2023/11/18 08:04:20;;;;;;;1.30;0.80;;;6.50;99.90;;;;;;5089629;28;20433;-49
2023/11/18 08:06:51;;;;;;;2.30;1.00;;;6.50;99.90;;;;;;5073968;28;20482;-51
2023/11/18 08:09:22;;;;;;;1.60;0.88;;;6.50;99.90;;;;;;5078387;28;20461;-50
2023/11/18 08:11:49;;;;;;;1.25;0.80;;;6.60;99.90;;;;;;5090474;28;20437;-52
2023/11/18 08:14:17;;;;;;;1.40;0.90;;;6.70;99.90;;;;;;5093637;28;20562;-52
2023/11/18 08:16:44;;;;;;;1.67;0.80;;;6.70;99.90;;;;;;5091967;28;20509;-51
2023/11/18 08:19:11;;;;;;;1.38;0.80;;;6.70;99.90;;;;;;5078919;28;20491;-50
2023/11/18 08:21:38;;;;;;;1.30;0.80;;;6.70;99.90;;;;;;5087335;28;20440;-54
2023/11/18 08:24:08;;;;;;;2.35;0.98;;;6.70;99.90;;;;;;5093726;28;20440;-53
2023/11/18 08:26:35;;;;;;;1.10;0.70;;;6.70;99.90;;;;;;5075188;28;20722;-53
2023/11/18 08:29:02;;;;;;;1.27;0.70;;;6.80;99.90;;;;;;5074090;28;20438;-52
2023/11/18 08:31:30;;;;;;;1.73;0.70;;;6.90;99.90;;;;;;5091304;28;20417;-53
2023/11/18 08:33:58;;;;;;;1.10;0.60;;;7.00;99.90;;;;;;5091071;28;20428;-53
2023/11/18 08:36:27;;;;;;;0.80;0.50;;;7.10;99.90;;;;;;5092284;28;20511;-52
2023/11/18 08:38:56;;;;;;;0.88;0.50;;;7.10;99.90;;;;;;5084370;28;20432;-53
2023/11/18 08:41:24;;;;;;;1.80;0.70;;;7.00;99.90;;;;;;5087350;28;20448;-54
2023/11/18 08:43:52;;;;;;;1.27;0.68;;;7.10;99.90;;;;;;5092712;28;20434;-50
2023/11/18 08:46:19;;;;;;;1.30;0.70;;;7.20;99.90;;;;;;5082663;28;20499;-53
2023/11/18 08:48:47;;;;;;;1.40;0.60;;;7.10;99.90;;;;;;5090888;28;20425;-51
2023/11/18 08:51:16;;;;;;;1.10;0.60;;;7.10;99.90;;;;;;5092150;28;20434;-53
2023/11/18 08:53:43;;;;;;;1.27;0.60;;;7.10;99.90;;;;;;5093924;28;20803;-52
2023/11/18 08:56:14;;;;;;;1.10;0.60;;;7.10;99.90;;;;;;5075506;28;20467;-50
2023/11/18 08:58:44;;;;;;;1.10;0.60;;;7.20;99.90;;;;;;5073971;28;20416;-53
2023/11/18 09:01:14;;;;;;;1.00;0.60;;;7.20;99.90;;;;;;5082431;28;20816;-51
2023/11/18 09:03:48;;;;;;;1.00;0.60;;;7.20;99.90;;;;;;5094023;28;20425;-52
2023/11/18 09:06:25;;;;;;;0.95;0.50;;;7.30;99.90;;;;;;5088488;28;20809;-52
2023/11/18 09:08:53;;;;;;;2.60;0.60;;;7.20;99.90;;;;;;5086176;28;20434;-52
2023/11/18 09:11:22;;;;;;;1.00;0.60;;;7.20;99.90;;;;;;5071968;28;20466;-53
2023/11/18 09:13:53;;;;;;;0.80;0.50;;;7.30;99.90;;;;;;5081728;28;20425;-52
2023/11/18 09:16:22;;;;;;;1.00;0.60;;;7.40;99.90;;;;;;5086710;28;20435;-54
2023/11/18 09:18:50;;;;;;;2.40;0.50;;;7.40;99.90;;;;;;5079336;28;20433;-53
2023/11/18 09:21:23;;;;;;;1.90;0.70;;;7.50;99.90;;;;;;5081955;28;20435;-53
2023/11/18 09:23:50;;;;;;;0.98;0.60;;;7.40;99.90;;;;;;5073136;28;20505;-52
2023/11/18 09:26:17;;;;;;;1.40;0.60;;;7.40;99.90;;;;;;5091583;28;20465;-53
2023/11/18 09:28:44;;;;;;;2.40;0.60;;;7.50;99.90;;;;;;5079401;28;20422;-54
2023/11/18 09:31:12;;;;;;;1.60;0.60;;;7.50;99.90;;;;;;5080918;28;20422;-53
2023/11/18 09:33:44;;;;;;;0.93;0.50;;;7.50;99.90;;;;;;5075639;28;20440;-51
2023/11/18 09:36:13;;;;;;;2.08;0.40;;;7.60;99.90;;;;;;5078981;28;20731;-51
2023/11/18 09:38:41;;;;;;;1.48;0.70;;;7.80;99.90;;;;;;5076352;28;20432;-48
2023/11/18 09:41:11;;;;;;;1.00;0.60;;;7.80;99.90;;;;;;5072749;28;20522;-49
2023/11/18 09:43:44;;;;;;;0.70;0.40;;;7.80;99.90;;;;;;5080444;28;20509;-49
2023/11/18 09:46:14;;;;;;;1.08;0.40;;;8.00;99.90;;;;;;5094222;28;20536;-47
2023/11/18 09:48:46;;;;;;;0.77;0.50;;;8.00;99.90;;;;;;5090689;28;20438;-51
2023/11/18 09:51:20;;;;;;;0.90;0.40;;;8.00;99.90;;;;;;5093409;28;20544;-49
2023/11/18 09:53:50;;;;;;;1.20;0.40;;;8.10;99.90;;;;;;5090657;28;20738;-53
2023/11/18 09:56:27;;;;;;;1.10;0.40;;;8.10;99.90;;;;;;5093445;28;20453;-49
2023/11/18 09:59:06;;;;;;;1.10;0.40;;;8.20;99.90;;;;;;5093115;28;20436;-51
2023/11/18 10:01:42;;;;;;;0.60;0.32;;;8.20;99.90;;;;;;5092811;28;20429;-50
2023/11/18 10:04:10;;;;;;;1.30;0.50;;;8.20;99.90;;;;;;5093277;28;20421;-49
2023/11/18 10:06:38;;;;;;;0.80;0.40;;;8.20;99.90;;;;;;5093656;28;20520;-53
2023/11/18 10:09:15;;;;;;;0.70;0.40;;;8.30;99.90;;;;;;5093232;28;20426;-51
2023/11/18 10:11:46;;;;;;;0.88;0.40;;;8.30;99.90;;;;;;5072581;28;20444;-52
2023/11/18 10:14:15;;;;;;;0.90;0.30;;;8.40;99.90;;;;;;5072774;28;20801;-51
2023/11/18 10:16:46;;;;;;;0.60;0.40;;;8.50;99.90;;;;;;5092013;28;20422;-50
2023/11/18 10:19:14;;;;;;;0.80;0.40;;;8.50;99.90;;;;;;5092060;28;20414;-49
2023/11/18 10:21:41;;;;;;;1.38;0.50;;;8.50;99.90;;;;;;5092714;28;20425;-50
2023/11/18 10:24:14;;;;;;;0.88;0.40;;;8.50;99.90;;;;;;5093017;28;20427;-55
2023/11/18 10:26:44;;;;;;;2.00;0.50;;;8.60;99.90;;;;;;5093706;28;20440;-52
2023/11/18 10:29:13;;;;;;;0.70;0.40;;;8.60;99.90;;;;;;5090027;28;20434;-51
2023/11/18 10:31:44;;;;;;;0.60;0.30;;;8.60;99.90;;;;;;5075927;28;20451;-47
2023/11/18 10:34:15;;;;;;;1.20;0.30;;;8.70;99.90;;;;;;5077938;28;20444;-53
2023/11/18 10:36:59;;;;;;;1.30;0.40;;;8.60;99.90;;;;;;5091852;28;20510;-50
2023/11/18 10:39:31;;;;;;;0.60;0.30;;;8.70;99.90;;;;;;5086582;28;20520;-51
2023/11/18 10:42:05;;;;;;;0.95;0.30;;;8.60;99.90;;;;;;5096129;28;20433;-51
2023/11/18 10:44:32;;;;;;;0.80;0.40;;;8.70;99.90;;;;;;5096841;28;20779;-52
2023/11/18 10:47:00;;;;;;;0.70;0.35;;;8.70;99.90;;;;;;5093940;28;21048;-50
2023/11/18 10:49:36;;;;;;;0.88;0.40;;;8.80;99.90;;;;;;5096034;28;20422;-48
2023/11/18 10:52:06;;;;;;;0.52;0.30;;;8.90;99.90;;;;;;5096080;28;20418;-51
2023/11/18 10:54:34;;;;;;;0.80;0.30;;;8.90;99.90;;;;;;5093153;28;20464;-49
2023/11/18 10:57:07;;;;;;;0.50;0.30;;;9.00;99.90;;;;;;5094708;28;20420;-52
2023/11/18 10:59:34;;;;;;;0.90;0.30;;;9.00;99.90;;;;;;5095473;28;20432;-51
2023/11/18 11:02:01;;;;;;;1.00;0.32;;;9.00;99.90;;;;;;5092110;28;20478;-50
2023/11/18 11:04:44;;;;;;;1.27;0.30;;;9.00;99.90;;;;;;5093086;28;20842;-52
2023/11/18 11:07:13;;;;;;;1.70;0.40;;;9.00;99.90;;;;;;5093170;28;20422;-52
2023/11/18 11:09:42;;;;;;;0.80;0.33;;;9.10;99.90;;;;;;5093065;28;20432;-52
2023/11/18 11:12:14;;;;;;;1.10;0.30;;;9.20;99.90;;;;;;5092212;28;20425;-54
2023/11/18 11:14:56;;;;;;;0.50;0.30;;;9.30;99.90;;;;;;5093258;28;20422;-49
2023/11/18 11:17:29;;;;;;;0.52;0.30;;;9.20;99.90;;;;;;5092475;28;20434;-51
2023/11/18 11:20:15;;;;;;;1.33;0.30;;;9.20;99.90;;;;;;5093954;28;20437;-52
2023/11/18 11:22:52;;;;;;;0.68;0.30;;;9.10;99.90;;;;;;5095480;28;20569;-52
2023/11/18 11:25:25;;;;;;;0.73;0.30;;;9.20;99.90;;;;;;5094838;28;20433;-50
2023/11/18 11:28:02;;;;;;;0.60;0.30;;;9.50;99.90;;;;;;5093421;28;20432;-53
2023/11/18 11:30:39;;;;;;;1.33;0.30;;;9.70;99.90;;;;;;5094160;28;20422;-49
2023/11/18 11:33:16;;;;;;;0.45;0.20;;;9.80;99.90;;;;;;5092288;28;20868;-52
2023/11/18 11:35:50;;;;;;;0.73;0.30;;;9.80;99.90;;;;;;5095097;28;20425;-51
2023/11/18 11:38:18;;;;;;;0.60;0.30;;;9.80;99.90;;;;;;5085275;28;20434;-53
2023/11/18 11:40:47;;;;;;;2.40;0.30;;;9.70;99.90;;;;;;5087444;28;20430;-53
2023/11/18 11:43:21;;;;;;;0.50;0.30;;;9.60;99.90;;;;;;5094024;28;20788;-52
2023/11/18 11:45:49;;;;;;;0.70;0.30;;;9.50;99.90;;;;;;5093802;28;20429;-54
2023/11/18 11:48:19;;;;;;;1.00;0.30;;;9.50;99.90;;;;;;5093326;28;20441;-52
2023/11/18 11:51:13;;;;;;;0.60;0.30;;;9.60;99.90;;;;;;5088843;28;20441;-50
2023/11/18 11:53:45;;;;;;;0.60;0.20;;;9.50;99.90;;;;;;5078281;28;20526;-50
2023/11/18 11:56:20;;;;;;;1.30;0.30;;;9.40;99.90;;;;;;5091596;28;20461;-53
2023/11/18 11:58:52;;;;;;;0.50;0.30;;;9.30;99.90;;;;;;5089383;28;20731;-49
2023/11/18 12:01:34;;;;;;;0.90;0.30;;;9.30;99.90;;;;;;5092948;28;20425;-54
2023/11/18 12:04:06;;;;;;;0.90;0.30;;;9.40;99.90;;;;;;5090336;28;20440;-52
2023/11/18 12:06:38;;;;;;;0.40;0.20;;;9.40;99.90;;;;;;5091741;28;20947;-51
2023/11/18 12:09:07;;;;;;;0.60;0.30;;;9.40;99.90;;;;;;5092666;28;20433;-51
2023/11/18 12:11:39;;;;;;;0.47;0.20;;;9.40;99.90;;;;;;5093288;28;20432;-53
2023/11/18 12:17:07;;;;;;;0.60;0.30;;;9.30;99.90;;;;;;5077798;28;20409;-49
2023/11/18 12:19:44;;;;;;;0.50;0.30;;;9.20;99.90;;;;;;5093239;28;20849;-54
2023/11/18 12:22:19;;;;;;;0.60;0.27;;;9.20;99.90;;;;;;5090596;28;20426;-50
2023/11/18 12:24:48;;;;;;;0.70;0.30;;;9.20;99.90;;;;;;5094138;28;20430;-54
2023/11/18 12:27:35;;;;;;;1.20;0.60;;;9.10;99.90;;;;;;5091724;28;20441;-50
2023/11/18 12:30:08;;;;;;;1.20;0.50;;;9.20;99.90;;;;;;5093170;28;20528;-52
2023/11/18 12:32:58;;;;;;;0.60;0.30;;;9.30;99.90;;;;;;5093624;28;20488;-52
2023/11/18 12:35:29;;;;;;;1.70;0.30;;;9.30;99.90;;;;;;5091341;28;20816;-49
2023/11/18 12:38:29;;;;;;;0.60;0.30;;;9.20;99.90;;;;;;5092671;28;20495;-52
2023/11/18 12:40:59;;;;;;;0.50;0.30;;;9.30;99.90;;;;;;5089245;28;20438;-51
2023/11/18 12:43:49;;;;;;;0.50;0.30;;;9.30;99.90;;;;;;5089899;28;20437;-52
2023/11/18 12:46:54;;;;;;;0.50;0.30;;;9.20;99.90;;;;;;5072928;28;20497;-53
2023/11/18 12:49:25;;;;;;;0.50;0.30;;;9.40;99.90;;;;;;5041968;28;20462;-53
2023/11/18 12:51:54;;;;;;;0.65;0.30;;;9.40;99.90;;;;;;5063862;28;20911;-53
2023/11/18 12:54:24;;;;;;;0.90;0.30;;;9.30;99.90;;;;;;5075411;28;20552;-52
2023/11/18 12:56:53;;;;;;;0.52;0.30;;;9.20;99.90;;;;;;5085867;28;20837;-53
2023/11/18 12:59:21;;;;;;;0.70;0.30;;;9.20;99.90;;;;;;5092273;28;20861;-52
2023/11/18 13:01:53;;;;;;;0.60;0.35;;;9.20;99.90;;;;;;5084387;28;20431;-52
2023/11/18 13:04:20;;;;;;;0.50;0.30;;;9.10;99.90;;;;;;5072272;28;20419;-52
2023/11/18 13:06:51;;;;;;;0.70;0.20;;;9.10;99.90;;;;;;5073019;28;20716;-54
2023/11/18 13:09:24;;;;;;;0.60;0.30;;;9.00;99.90;;;;;;5072633;28;20850;-53
2023/11/18 13:11:58;;;;;;;0.63;0.30;;;9.00;99.90;;;;;;5072266;28;20520;-52
2023/11/18 13:14:26;;;;;;;0.60;0.30;;;9.00;99.90;;;;;;5071256;28;20842;-52